sensor_id;sensor_type;location;lat;lon;timestamp;temperature;humidity
10459;DHT22;5277;48.722;8.736;2023-01-08T00:02:10;4.00;99.90
10459;DHT22;5277;48.722;8.736;2023-01-08T00:04:37;4.10;99.90
10459;DHT22;5277;48.722;8.736;2023-01-08T00:07:02;4.10;99.90
10459;DHT22;5277;48.722;8.736;2023-01-08T00:09:28;4.00;99.90
10459;DHT22;5277;48.722;8.736;2023-01-08T00:11:54;4.10;99.90
10459;DHT22;5277;48.722;8.736;2023-01-08T00:14:19;4.00;99.90
10459;DHT22;5277;48.722;8.736;2023-01-08T00:16:45;4.00;99.90
10459;DHT22;5277;48.722;8.736;2023-01-08T00:19:11;4.00;99.90
10459;DHT22;5277;48.722;8.736;2023-01-08T00:21:37;4.00;99.90
10459;DHT22;5277;48.722;8.736;2023-01-08T00:24:03;4.10;99.90
10459;DHT22;5277;48.722;8.736;2023-01-08T00:26:29;4.10;99.90
10459;DHT22;5277;48.722;8.736;2023-01-08T00:28:54;4.00;99.90
10459;DHT22;5277;48.722;8.736;2023-01-08T00:31:20;4.10;99.90
10459;DHT22;5277;48.722;8.736;2023-01-08T00:33:46;4.10;99.90
10459;DHT22;5277;48.722;8.736;2023-01-08T00:36:14;4.10;99.90
10459;DHT22;5277;48.722;8.736;2023-01-08T00:38:41;4.20;99.90
10459;DHT22;5277;48.722;8.736;2023-01-08T00:41:07;4.20;99.90
10459;DHT22;5277;48.722;8.736;2023-01-08T00:43:33;4.00;99.90
10459;DHT22;5277;48.722;8.736;2023-01-08T00:45:58;4.00;99.90
10459;DHT22;5277;48.722;8.736;2023-01-08T00:48:24;4.10;99.90
10459;DHT22;5277;48.722;8.736;2023-01-08T00:50:51;4.20;99.90
10459;DHT22;5277;48.722;8.736;2023-01-08T00:53:18;4.30;99.90
10459;DHT22;5277;48.722;8.736;2023-01-08T00:55:44;4.30;99.90
10459;DHT22;5277;48.722;8.736;2023-01-08T00:58:10;4.30;99.90
10459;DHT22;5277;48.722;8.736;2023-01-08T01:00:36;4.20;99.90
10459;DHT22;5277;48.722;8.736;2023-01-08T01:03:02;4.30;99.90
10459;DHT22;5277;48.722;8.736;2023-01-08T01:05:28;4.30;99.90
10459;DHT22;5277;48.722;8.736;2023-01-08T01:07:53;4.30;99.90
10459;DHT22;5277;48.722;8.736;2023-01-08T01:10:19;4.30;99.90
10459;DHT22;5277;48.722;8.736;2023-01-08T01:12:45;4.20;99.90
10459;DHT22;5277;48.722;8.736;2023-01-08T01:15:13;4.10;99.90
10459;DHT22;5277;48.722;8.736;2023-01-08T01:17:40;4.10;99.90
10459;DHT22;5277;48.722;8.736;2023-01-08T01:20:07;4.10;99.90
10459;DHT22;5277;48.722;8.736;2023-01-08T01:22:33;4.10;99.90
10459;DHT22;5277;48.722;8.736;2023-01-08T01:24:59;4.20;99.90
10459;DHT22;5277;48.722;8.736;2023-01-08T01:27:25;4.30;99.90
10459;DHT22;5277;48.722;8.736;2023-01-08T01:29:51;4.30;99.90
10459;DHT22;5277;48.722;8.736;2023-01-08T01:32:16;4.30;99.90
10459;DHT22;5277;48.722;8.736;2023-01-08T01:34:42;4.30;99.90
10459;DHT22;5277;48.722;8.736;2023-01-08T01:37:10;4.30;99.90
10459;DHT22;5277;48.722;8.736;2023-01-08T01:39:36;4.20;99.90
10459;DHT22;5277;48.722;8.736;2023-01-08T01:42:02;4.20;99.90
10459;DHT22;5277;48.722;8.736;2023-01-08T01:44:46;4.30;99.90
10459;DHT22;5277;48.722;8.736;2023-01-08T01:52:24;4.40;99.90
10459;DHT22;5277;48.722;8.736;2023-01-08T01:54:52;4.40;99.90
10459;DHT22;5277;48.722;8.736;2023-01-08T01:57:18;4.40;99.90
10459;DHT22;5277;48.722;8.736;2023-01-08T01:59:44;4.50;99.90
10459;DHT22;5277;48.722;8.736;2023-01-08T02:02:11;4.50;99.90
10459;DHT22;5277;48.722;8.736;2023-01-08T02:04:37;4.60;99.90
10459;DHT22;5277;48.722;8.736;2023-01-08T02:07:10;4.60;99.90
10459;DHT22;5277;48.722;8.736;2023-01-08T02:10:08;4.70;99.90
10459;DHT22;5277;48.722;8.736;2023-01-08T02:12:44;4.70;99.90
10459;DHT22;5277;48.722;8.736;2023-01-08T02:18:07;4.70;99.90
10459;DHT22;5277;48.722;8.736;2023-01-08T02:23:33;4.80;99.90
10459;DHT22;5277;48.722;8.736;2023-01-08T02:26:29;4.80;99.90
10459;DHT22;5277;48.722;8.736;2023-01-08T02:29:17;4.80;99.90
10459;DHT22;5277;48.722;8.736;2023-01-08T02:31:44;4.80;99.90
10459;DHT22;5277;48.722;8.736;2023-01-08T02:34:10;4.80;99.90
10459;DHT22;5277;48.722;8.736;2023-01-08T02:36:46;4.80;99.90
10459;DHT22;5277;48.722;8.736;2023-01-08T02:42:06;4.90;99.90
10459;DHT22;5277;48.722;8.736;2023-01-08T02:44:40;5.00;99.90
10459;DHT22;5277;48.722;8.736;2023-01-08T02:47:14;5.00;99.90
10459;DHT22;5277;48.722;8.736;2023-01-08T02:49:46;5.00;99.90
10459;DHT22;5277;48.722;8.736;2023-01-08T02:52:13;5.00;99.90
10459;DHT22;5277;48.722;8.736;2023-01-08T02:54:42;4.90;99.90
10459;DHT22;5277;48.722;8.736;2023-01-08T02:57:11;5.00;99.90
10459;DHT22;5277;48.722;8.736;2023-01-08T02:59:40;4.90;99.90
10459;DHT22;5277;48.722;8.736;2023-01-08T03:02:08;4.90;99.90
10459;DHT22;5277;48.722;8.736;2023-01-08T03:04:52;5.00;99.90
10459;DHT22;5277;48.722;8.736;2023-01-08T03:07:19;4.90;99.90
10459;DHT22;5277;48.722;8.736;2023-01-08T03:09:45;4.90;99.90
10459;DHT22;5277;48.722;8.736;2023-01-08T03:12:24;5.00;99.90
10459;DHT22;5277;48.722;8.736;2023-01-08T03:15:05;5.00;99.90
10459;DHT22;5277;48.722;8.736;2023-01-08T03:17:35;5.00;99.90
10459;DHT22;5277;48.722;8.736;2023-01-08T03:20:22;5.00;99.90
10459;DHT22;5277;48.722;8.736;2023-01-08T03:22:53;5.00;99.90
10459;DHT22;5277;48.722;8.736;2023-01-08T03:25:22;5.00;99.90
10459;DHT22;5277;48.722;8.736;2023-01-08T03:27:54;5.10;99.90
10459;DHT22;5277;48.722;8.736;2023-01-08T03:30:21;5.10;99.90
10459;DHT22;5277;48.722;8.736;2023-01-08T03:32:48;5.10;99.90
10459;DHT22;5277;48.722;8.736;2023-01-08T03:35:19;5.10;99.90
10459;DHT22;5277;48.722;8.736;2023-01-08T03:37:53;5.10;99.90
10459;DHT22;5277;48.722;8.736;2023-01-08T03:40:24;5.10;99.90
10459;DHT22;5277;48.722;8.736;2023-01-08T03:42:51;5.10;99.90
10459;DHT22;5277;48.722;8.736;2023-01-08T03:45:17;5.10;99.90
10459;DHT22;5277;48.722;8.736;2023-01-08T03:47:44;5.20;99.90
10459;DHT22;5277;48.722;8.736;2023-01-08T03:50:24;5.10;99.90
10459;DHT22;5277;48.722;8.736;2023-01-08T03:52:51;5.20;99.90
10459;DHT22;5277;48.722;8.736;2023-01-08T03:55:17;5.20;99.90
10459;DHT22;5277;48.722;8.736;2023-01-08T03:57:43;5.10;99.90
10459;DHT22;5277;48.722;8.736;2023-01-08T04:00:09;5.10;99.90
10459;DHT22;5277;48.722;8.736;2023-01-08T04:02:35;5.20;99.90
10459;DHT22;5277;48.722;8.736;2023-01-08T04:05:01;5.20;99.90
10459;DHT22;5277;48.722;8.736;2023-01-08T04:07:26;5.20;99.90
10459;DHT22;5277;48.722;8.736;2023-01-08T04:09:52;5.20;99.90
10459;DHT22;5277;48.722;8.736;2023-01-08T04:12:17;5.20;99.90
10459;DHT22;5277;48.722;8.736;2023-01-08T04:14:43;5.20;99.90
10459;DHT22;5277;48.722;8.736;2023-01-08T04:17:11;5.20;99.90
10459;DHT22;5277;48.722;8.736;2023-01-08T04:19:36;5.20;99.90
10459;DHT22;5277;48.722;8.736;2023-01-08T04:22:02;5.30;99.90
10459;DHT22;5277;48.722;8.736;2023-01-08T04:24:27;5.30;99.90
10459;DHT22;5277;48.722;8.736;2023-01-08T04:26:53;5.30;99.90
10459;DHT22;5277;48.722;8.736;2023-01-08T04:29:19;5.30;99.90
10459;DHT22;5277;48.722;8.736;2023-01-08T04:31:44;5.30;99.90
10459;DHT22;5277;48.722;8.736;2023-01-08T04:34:10;5.30;99.90
10459;DHT22;5277;48.722;8.736;2023-01-08T04:36:35;5.40;99.90
10459;DHT22;5277;48.722;8.736;2023-01-08T04:39:01;5.30;99.90
10459;DHT22;5277;48.722;8.736;2023-01-08T04:41:27;5.30;99.90
10459;DHT22;5277;48.722;8.736;2023-01-08T04:43:52;5.30;99.90
10459;DHT22;5277;48.722;8.736;2023-01-08T04:46:18;5.30;99.90
10459;DHT22;5277;48.722;8.736;2023-01-08T04:48:43;5.30;99.90
10459;DHT22;5277;48.722;8.736;2023-01-08T04:51:09;5.40;99.90
10459;DHT22;5277;48.722;8.736;2023-01-08T04:53:36;5.30;99.90
10459;DHT22;5277;48.722;8.736;2023-01-08T04:56:07;5.40;99.90
10459;DHT22;5277;48.722;8.736;2023-01-08T04:58:34;5.40;99.90
10459;DHT22;5277;48.722;8.736;2023-01-08T05:01:00;5.40;99.90
10459;DHT22;5277;48.722;8.736;2023-01-08T05:03:33;5.40;99.90
10459;DHT22;5277;48.722;8.736;2023-01-08T05:05:59;5.40;99.90
10459;DHT22;5277;48.722;8.736;2023-01-08T05:08:28;5.50;99.90
10459;DHT22;5277;48.722;8.736;2023-01-08T05:10:53;5.50;99.90
10459;DHT22;5277;48.722;8.736;2023-01-08T05:13:19;5.50;99.90
10459;DHT22;5277;48.722;8.736;2023-01-08T05:15:44;5.50;99.90
10459;DHT22;5277;48.722;8.736;2023-01-08T05:18:10;5.60;99.90
10459;DHT22;5277;48.722;8.736;2023-01-08T05:20:35;5.60;99.90
10459;DHT22;5277;48.722;8.736;2023-01-08T05:23:01;5.70;99.90
10459;DHT22;5277;48.722;8.736;2023-01-08T05:25:27;5.70;99.90
10459;DHT22;5277;48.722;8.736;2023-01-08T05:27:52;5.70;99.90
10459;DHT22;5277;48.722;8.736;2023-01-08T05:30:18;5.70;99.90
10459;DHT22;5277;48.722;8.736;2023-01-08T05:32:44;5.80;99.90
10459;DHT22;5277;48.722;8.736;2023-01-08T05:35:09;5.80;99.90
10459;DHT22;5277;48.722;8.736;2023-01-08T05:37:36;5.80;99.90
10459;DHT22;5277;48.722;8.736;2023-01-08T05:40:02;5.80;99.90
10459;DHT22;5277;48.722;8.736;2023-01-08T05:42:28;5.80;99.90
10459;DHT22;5277;48.722;8.736;2023-01-08T05:44:54;5.90;99.90
10459;DHT22;5277;48.722;8.736;2023-01-08T05:47:19;5.90;99.90
10459;DHT22;5277;48.722;8.736;2023-01-08T05:49:45;5.90;99.90
10459;DHT22;5277;48.722;8.736;2023-01-08T05:52:11;5.90;99.90
10459;DHT22;5277;48.722;8.736;2023-01-08T05:54:36;5.90;99.90
10459;DHT22;5277;48.722;8.736;2023-01-08T05:57:02;5.90;99.90
10459;DHT22;5277;48.722;8.736;2023-01-08T05:59:27;5.90;99.90
10459;DHT22;5277;48.722;8.736;2023-01-08T06:01:53;5.90;99.90
10459;DHT22;5277;48.722;8.736;2023-01-08T06:04:18;5.90;99.90
10459;DHT22;5277;48.722;8.736;2023-01-08T06:06:44;6.00;99.90
10459;DHT22;5277;48.722;8.736;2023-01-08T06:09:09;5.90;99.90
10459;DHT22;5277;48.722;8.736;2023-01-08T06:11:35;6.00;99.90
10459;DHT22;5277;48.722;8.736;2023-01-08T06:14:00;6.00;99.90
10459;DHT22;5277;48.722;8.736;2023-01-08T06:16:26;6.00;99.90
10459;DHT22;5277;48.722;8.736;2023-01-08T06:18:52;5.90;99.90
10459;DHT22;5277;48.722;8.736;2023-01-08T06:21:17;6.00;99.90
10459;DHT22;5277;48.722;8.736;2023-01-08T06:23:43;6.00;99.90
10459;DHT22;5277;48.722;8.736;2023-01-08T06:26:08;6.00;99.90
10459;DHT22;5277;48.722;8.736;2023-01-08T06:28:34;6.00;99.90
10459;DHT22;5277;48.722;8.736;2023-01-08T06:31:00;6.00;99.90
10459;DHT22;5277;48.722;8.736;2023-01-08T06:33:27;6.00;99.90
10459;DHT22;5277;48.722;8.736;2023-01-08T06:35:52;6.00;99.90
10459;DHT22;5277;48.722;8.736;2023-01-08T06:38:18;6.00;99.90
10459;DHT22;5277;48.722;8.736;2023-01-08T06:40:47;6.00;99.90
10459;DHT22;5277;48.722;8.736;2023-01-08T06:43:13;5.90;99.90
10459;DHT22;5277;48.722;8.736;2023-01-08T06:45:38;5.90;99.90
10459;DHT22;5277;48.722;8.736;2023-01-08T06:48:05;5.90;99.90
10459;DHT22;5277;48.722;8.736;2023-01-08T06:50:32;5.90;99.90
10459;DHT22;5277;48.722;8.736;2023-01-08T06:52:58;6.00;99.90
10459;DHT22;5277;48.722;8.736;2023-01-08T06:55:24;6.00;99.90
10459;DHT22;5277;48.722;8.736;2023-01-08T06:57:56;6.10;99.90
10459;DHT22;5277;48.722;8.736;2023-01-08T07:00:23;6.10;99.90
10459;DHT22;5277;48.722;8.736;2023-01-08T07:02:51;6.20;99.90
10459;DHT22;5277;48.722;8.736;2023-01-08T07:05:16;6.20;99.90
10459;DHT22;5277;48.722;8.736;2023-01-08T07:07:42;6.20;99.90
10459;DHT22;5277;48.722;8.736;2023-01-08T07:10:08;6.20;99.90
10459;DHT22;5277;48.722;8.736;2023-01-08T07:12:34;6.30;99.90
10459;DHT22;5277;48.722;8.736;2023-01-08T07:15:00;6.30;99.90
10459;DHT22;5277;48.722;8.736;2023-01-08T07:17:25;6.30;99.90
10459;DHT22;5277;48.722;8.736;2023-01-08T07:19:51;6.40;99.90
10459;DHT22;5277;48.722;8.736;2023-01-08T07:22:17;6.40;99.90
10459;DHT22;5277;48.722;8.736;2023-01-08T07:24:42;6.40;99.90
10459;DHT22;5277;48.722;8.736;2023-01-08T07:27:08;6.40;99.90
10459;DHT22;5277;48.722;8.736;2023-01-08T07:29:33;6.50;99.90
10459;DHT22;5277;48.722;8.736;2023-01-08T07:32:00;6.60;99.90
10459;DHT22;5277;48.722;8.736;2023-01-08T07:34:25;6.60;99.90
10459;DHT22;5277;48.722;8.736;2023-01-08T07:36:51;6.60;99.90
10459;DHT22;5277;48.722;8.736;2023-01-08T07:39:16;6.70;99.90
10459;DHT22;5277;48.722;8.736;2023-01-08T07:41:42;6.80;99.90
10459;DHT22;5277;48.722;8.736;2023-01-08T07:44:09;6.80;99.90
10459;DHT22;5277;48.722;8.736;2023-01-08T07:46:34;6.90;99.90
10459;DHT22;5277;48.722;8.736;2023-01-08T07:49:00;6.90;99.90
10459;DHT22;5277;48.722;8.736;2023-01-08T07:51:26;7.00;99.90
10459;DHT22;5277;48.722;8.736;2023-01-08T07:53:51;7.00;99.90
10459;DHT22;5277;48.722;8.736;2023-01-08T07:56:17;7.00;99.90
10459;DHT22;5277;48.722;8.736;2023-01-08T07:58:42;7.10;99.90
10459;DHT22;5277;48.722;8.736;2023-01-08T08:01:09;7.10;99.90
10459;DHT22;5277;48.722;8.736;2023-01-08T08:03:37;7.20;99.90
10459;DHT22;5277;48.722;8.736;2023-01-08T08:06:02;7.20;99.90
10459;DHT22;5277;48.722;8.736;2023-01-08T08:08:28;7.20;99.90
10459;DHT22;5277;48.722;8.736;2023-01-08T08:10:54;7.30;99.90
10459;DHT22;5277;48.722;8.736;2023-01-08T08:13:19;7.30;99.90
10459;DHT22;5277;48.722;8.736;2023-01-08T08:15:45;7.30;99.90
10459;DHT22;5277;48.722;8.736;2023-01-08T08:18:10;7.30;99.90
10459;DHT22;5277;48.722;8.736;2023-01-08T08:20:36;7.50;99.90
10459;DHT22;5277;48.722;8.736;2023-01-08T08:23:04;7.40;99.90
10459;DHT22;5277;48.722;8.736;2023-01-08T08:25:30;7.50;99.90
10459;DHT22;5277;48.722;8.736;2023-01-08T08:27:57;7.50;99.90
10459;DHT22;5277;48.722;8.736;2023-01-08T08:30:23;7.60;99.90
10459;DHT22;5277;48.722;8.736;2023-01-08T08:32:49;7.60;99.90
10459;DHT22;5277;48.722;8.736;2023-01-08T08:35:15;7.60;99.90
10459;DHT22;5277;48.722;8.736;2023-01-08T08:37:40;7.70;99.90
10459;DHT22;5277;48.722;8.736;2023-01-08T08:40:07;7.60;99.90
10459;DHT22;5277;48.722;8.736;2023-01-08T08:42:32;7.70;99.90
10459;DHT22;5277;48.722;8.736;2023-01-08T08:44:58;7.70;99.90
10459;DHT22;5277;48.722;8.736;2023-01-08T08:47:24;7.70;99.90
10459;DHT22;5277;48.722;8.736;2023-01-08T08:49:49;7.80;99.90
10459;DHT22;5277;48.722;8.736;2023-01-08T08:52:15;7.80;99.90
10459;DHT22;5277;48.722;8.736;2023-01-08T08:54:41;7.90;99.90
10459;DHT22;5277;48.722;8.736;2023-01-08T08:57:08;7.90;99.90
10459;DHT22;5277;48.722;8.736;2023-01-08T08:59:34;7.90;99.90
10459;DHT22;5277;48.722;8.736;2023-01-08T09:02:00;8.00;99.90
10459;DHT22;5277;48.722;8.736;2023-01-08T09:04:29;8.00;99.90
10459;DHT22;5277;48.722;8.736;2023-01-08T09:06:55;8.10;99.90
10459;DHT22;5277;48.722;8.736;2023-01-08T09:09:21;8.10;99.90
10459;DHT22;5277;48.722;8.736;2023-01-08T09:11:46;8.20;99.90
10459;DHT22;5277;48.722;8.736;2023-01-08T09:14:12;8.30;99.90
10459;DHT22;5277;48.722;8.736;2023-01-08T09:16:37;8.30;99.90
10459;DHT22;5277;48.722;8.736;2023-01-08T09:19:03;8.30;99.90
10459;DHT22;5277;48.722;8.736;2023-01-08T09:21:29;8.30;99.90
10459;DHT22;5277;48.722;8.736;2023-01-08T09:23:55;8.30;99.90
10459;DHT22;5277;48.722;8.736;2023-01-08T09:26:21;8.40;99.90
10459;DHT22;5277;48.722;8.736;2023-01-08T09:28:46;8.40;99.90
10459;DHT22;5277;48.722;8.736;2023-01-08T09:31:12;8.50;99.90
10459;DHT22;5277;48.722;8.736;2023-01-08T09:33:37;8.50;99.90
10459;DHT22;5277;48.722;8.736;2023-01-08T09:36:03;8.50;99.90
10459;DHT22;5277;48.722;8.736;2023-01-08T09:38:29;8.50;99.90
10459;DHT22;5277;48.722;8.736;2023-01-08T09:40:59;8.50;99.90
10459;DHT22;5277;48.722;8.736;2023-01-08T09:43:30;8.60;99.90
10459;DHT22;5277;48.722;8.736;2023-01-08T09:45:58;8.60;99.90
10459;DHT22;5277;48.722;8.736;2023-01-08T09:48:27;8.70;99.90
10459;DHT22;5277;48.722;8.736;2023-01-08T09:50:54;8.60;99.90
10459;DHT22;5277;48.722;8.736;2023-01-08T09:53:20;8.70;99.90
10459;DHT22;5277;48.722;8.736;2023-01-08T09:55:51;8.80;99.90
10459;DHT22;5277;48.722;8.736;2023-01-08T09:58:37;8.80;99.90
10459;DHT22;5277;48.722;8.736;2023-01-08T10:01:04;8.80;99.90
10459;DHT22;5277;48.722;8.736;2023-01-08T10:06:14;8.80;99.90
10459;DHT22;5277;48.722;8.736;2023-01-08T10:08:51;8.90;99.90
10459;DHT22;5277;48.722;8.736;2023-01-08T10:11:18;8.90;99.90
10459;DHT22;5277;48.722;8.736;2023-01-08T10:13:51;8.90;99.90
10459;DHT22;5277;48.722;8.736;2023-01-08T10:16:31;9.00;99.90
10459;DHT22;5277;48.722;8.736;2023-01-08T10:18:58;9.00;99.90
10459;DHT22;5277;48.722;8.736;2023-01-08T10:21:32;9.00;99.90
10459;DHT22;5277;48.722;8.736;2023-01-08T10:24:01;9.00;99.90
10459;DHT22;5277;48.722;8.736;2023-01-08T10:26:31;9.00;99.90
10459;DHT22;5277;48.722;8.736;2023-01-08T10:29:18;9.10;99.90
10459;DHT22;5277;48.722;8.736;2023-01-08T10:31:48;9.10;99.90
10459;DHT22;5277;48.722;8.736;2023-01-08T10:34:45;9.10;99.90
10459;DHT22;5277;48.722;8.736;2023-01-08T10:37:31;9.10;99.90
10459;DHT22;5277;48.722;8.736;2023-01-08T10:42:45;9.20;99.90
10459;DHT22;5277;48.722;8.736;2023-01-08T10:45:21;9.30;99.90
10459;DHT22;5277;48.722;8.736;2023-01-08T10:47:50;9.30;99.90
10459;DHT22;5277;48.722;8.736;2023-01-08T10:50:23;9.40;99.90
10459;DHT22;5277;48.722;8.736;2023-01-08T10:53:04;9.40;99.90
10459;DHT22;5277;48.722;8.736;2023-01-08T10:55:32;9.50;99.90
10459;DHT22;5277;48.722;8.736;2023-01-08T11:00:34;9.70;99.90
10459;DHT22;5277;48.722;8.736;2023-01-08T11:03:04;9.70;99.90
10459;DHT22;5277;48.722;8.736;2023-01-08T11:05:36;9.70;99.90
10459;DHT22;5277;48.722;8.736;2023-01-08T11:08:07;9.70;99.90
10459;DHT22;5277;48.722;8.736;2023-01-08T11:10:37;9.80;99.90
10459;DHT22;5277;48.722;8.736;2023-01-08T11:13:05;9.90;99.90
10459;DHT22;5277;48.722;8.736;2023-01-08T11:15:33;9.90;99.90
10459;DHT22;5277;48.722;8.736;2023-01-08T11:20:34;10.10;99.90
10459;DHT22;5277;48.722;8.736;2023-01-08T11:23:05;10.10;99.90
10459;DHT22;5277;48.722;8.736;2023-01-08T11:25:31;10.10;99.90
10459;DHT22;5277;48.722;8.736;2023-01-08T11:27:58;10.10;99.90
10459;DHT22;5277;48.722;8.736;2023-01-08T11:30:27;10.10;99.90
10459;DHT22;5277;48.722;8.736;2023-01-08T11:33:10;10.20;99.90
10459;DHT22;5277;48.722;8.736;2023-01-08T11:35:45;10.20;99.90
10459;DHT22;5277;48.722;8.736;2023-01-08T11:38:13;10.20;99.90
10459;DHT22;5277;48.722;8.736;2023-01-08T11:46:36;10.40;99.90
10459;DHT22;5277;48.722;8.736;2023-01-08T11:49:20;10.40;99.90
10459;DHT22;5277;48.722;8.736;2023-01-08T11:52:07;10.50;99.90
10459;DHT22;5277;48.722;8.736;2023-01-08T11:57:51;10.50;99.90
10459;DHT22;5277;48.722;8.736;2023-01-08T12:05:48;10.40;99.90
10459;DHT22;5277;48.722;8.736;2023-01-08T12:31:30;10.30;99.90
10459;DHT22;5277;48.722;8.736;2023-01-08T12:34:18;10.30;99.90
10459;DHT22;5277;48.722;8.736;2023-01-08T12:36:49;10.30;99.90
10459;DHT22;5277;48.722;8.736;2023-01-08T12:39:21;10.30;99.90
10459;DHT22;5277;48.722;8.736;2023-01-08T12:41:48;10.30;99.90
10459;DHT22;5277;48.722;8.736;2023-01-08T12:44:24;10.30;99.90
10459;DHT22;5277;48.722;8.736;2023-01-08T12:46:52;10.30;99.90
10459;DHT22;5277;48.722;8.736;2023-01-08T12:49:41;10.30;99.90
10459;DHT22;5277;48.722;8.736;2023-01-08T12:52:52;10.30;99.90
10459;DHT22;5277;48.722;8.736;2023-01-08T12:55:43;10.40;99.90
10459;DHT22;5277;48.722;8.736;2023-01-08T13:01:34;10.30;99.90
10459;DHT22;5277;48.722;8.736;2023-01-08T13:04:02;10.40;99.90
10459;DHT22;5277;48.722;8.736;2023-01-08T13:06:29;10.30;99.90
10459;DHT22;5277;48.722;8.736;2023-01-08T13:08:56;10.40;99.90
10459;DHT22;5277;48.722;8.736;2023-01-08T13:11:33;10.40;99.90
10459;DHT22;5277;48.722;8.736;2023-01-08T13:14:07;10.50;99.90
10459;DHT22;5277;48.722;8.736;2023-01-08T13:16:40;10.50;99.90
10459;DHT22;5277;48.722;8.736;2023-01-08T13:19:25;10.50;99.90
10459;DHT22;5277;48.722;8.736;2023-01-08T13:21:54;10.50;99.90
10459;DHT22;5277;48.722;8.736;2023-01-08T13:24:35;10.50;99.90
10459;DHT22;5277;48.722;8.736;2023-01-08T13:27:30;10.50;99.90
10459;DHT22;5277;48.722;8.736;2023-01-08T13:29:56;10.40;99.90
10459;DHT22;5277;48.722;8.736;2023-01-08T13:32:58;10.30;99.90
10459;DHT22;5277;48.722;8.736;2023-01-08T13:35:27;10.20;99.90
10459;DHT22;5277;48.722;8.736;2023-01-08T13:45:41;10.00;99.90
10459;DHT22;5277;48.722;8.736;2023-01-08T13:48:23;10.00;99.90
10459;DHT22;5277;48.722;8.736;2023-01-08T13:50:50;10.00;99.90
10459;DHT22;5277;48.722;8.736;2023-01-08T13:53:16;10.00;99.90
10459;DHT22;5277;48.722;8.736;2023-01-08T13:55:55;10.00;99.90
10459;DHT22;5277;48.722;8.736;2023-01-08T13:58:37;10.10;99.90
10459;DHT22;5277;48.722;8.736;2023-01-08T14:01:05;10.20;99.90
10459;DHT22;5277;48.722;8.736;2023-01-08T14:03:35;10.40;99.90
10459;DHT22;5277;48.722;8.736;2023-01-08T14:06:21;10.40;99.90
10459;DHT22;5277;48.722;8.736;2023-01-08T14:11:23;10.60;99.90
10459;DHT22;5277;48.722;8.736;2023-01-08T14:13:49;10.60;99.90
10459;DHT22;5277;48.722;8.736;2023-01-08T14:16:16;10.50;99.90
10459;DHT22;5277;48.722;8.736;2023-01-08T14:18:43;10.60;99.90
10459;DHT22;5277;48.722;8.736;2023-01-08T14:21:10;10.50;99.90
10459;DHT22;5277;48.722;8.736;2023-01-08T14:23:43;10.60;99.90
10459;DHT22;5277;48.722;8.736;2023-01-08T14:28:55;10.50;99.90
10459;DHT22;5277;48.722;8.736;2023-01-08T14:31:23;10.50;99.90
10459;DHT22;5277;48.722;8.736;2023-01-08T14:33:50;10.40;99.90
10459;DHT22;5277;48.722;8.736;2023-01-08T14:36:16;10.40;99.90
10459;DHT22;5277;48.722;8.736;2023-01-08T14:38:43;10.50;99.90
10459;DHT22;5277;48.722;8.736;2023-01-08T14:41:16;10.40;99.90
10459;DHT22;5277;48.722;8.736;2023-01-08T14:43:46;10.30;99.90
10459;DHT22;5277;48.722;8.736;2023-01-08T14:46:26;10.30;99.90
10459;DHT22;5277;48.722;8.736;2023-01-08T14:48:53;10.30;99.90
10459;DHT22;5277;48.722;8.736;2023-01-08T14:51:22;10.30;99.90
10459;DHT22;5277;48.722;8.736;2023-01-08T14:53:51;10.30;99.90
10459;DHT22;5277;48.722;8.736;2023-01-08T14:56:22;10.20;99.90
10459;DHT22;5277;48.722;8.736;2023-01-08T14:58:48;10.10;99.90
10459;DHT22;5277;48.722;8.736;2023-01-08T15:01:18;10.10;99.90
10459;DHT22;5277;48.722;8.736;2023-01-08T15:03:46;10.10;99.90
10459;DHT22;5277;48.722;8.736;2023-01-08T15:06:26;10.00;99.90
10459;DHT22;5277;48.722;8.736;2023-01-08T15:08:51;9.90;99.90
10459;DHT22;5277;48.722;8.736;2023-01-08T15:13:43;9.70;99.90
10459;DHT22;5277;48.722;8.736;2023-01-08T15:16:15;9.70;99.90
10459;DHT22;5277;48.722;8.736;2023-01-08T15:18:45;9.60;99.90
10459;DHT22;5277;48.722;8.736;2023-01-08T15:21:20;9.60;99.90
10459;DHT22;5277;48.722;8.736;2023-01-08T15:23:49;9.60;99.90
10459;DHT22;5277;48.722;8.736;2023-01-08T15:26:16;9.60;99.90
10459;DHT22;5277;48.722;8.736;2023-01-08T15:28:50;9.60;99.90
10459;DHT22;5277;48.722;8.736;2023-01-08T15:33:53;9.60;99.90
10459;DHT22;5277;48.722;8.736;2023-01-08T15:36:19;9.60;99.90
10459;DHT22;5277;48.722;8.736;2023-01-08T15:38:46;9.50;99.90
10459;DHT22;5277;48.722;8.736;2023-01-08T15:41:16;9.60;99.90
10459;DHT22;5277;48.722;8.736;2023-01-08T15:44:05;9.60;99.90
10459;DHT22;5277;48.722;8.736;2023-01-08T15:46:31;9.50;99.90
10459;DHT22;5277;48.722;8.736;2023-01-08T15:48:58;9.40;99.90
10459;DHT22;5277;48.722;8.736;2023-01-08T15:51:31;9.40;99.90
10459;DHT22;5277;48.722;8.736;2023-01-08T15:53:58;9.50;99.90
10459;DHT22;5277;48.722;8.736;2023-01-08T15:56:34;9.40;99.90
10459;DHT22;5277;48.722;8.736;2023-01-08T15:59:10;9.30;99.90
10459;DHT22;5277;48.722;8.736;2023-01-08T16:01:39;9.20;99.90
10459;DHT22;5277;48.722;8.736;2023-01-08T16:04:12;9.20;99.90
10459;DHT22;5277;48.722;8.736;2023-01-08T16:09:13;9.10;99.90
10459;DHT22;5277;48.722;8.736;2023-01-08T16:11:45;9.10;99.90
10459;DHT22;5277;48.722;8.736;2023-01-08T16:14:16;9.10;99.90
10459;DHT22;5277;48.722;8.736;2023-01-08T16:16:42;9.00;99.90
10459;DHT22;5277;48.722;8.736;2023-01-08T16:19:08;8.90;99.90
10459;DHT22;5277;48.722;8.736;2023-01-08T16:21:33;8.90;99.90
10459;DHT22;5277;48.722;8.736;2023-01-08T16:23:59;9.00;99.90
10459;DHT22;5277;48.722;8.736;2023-01-08T16:26:24;9.00;99.90
10459;DHT22;5277;48.722;8.736;2023-01-08T16:28:50;9.00;99.90
10459;DHT22;5277;48.722;8.736;2023-01-08T16:31:16;9.00;99.90
10459;DHT22;5277;48.722;8.736;2023-01-08T16:33:41;9.00;99.90
10459;DHT22;5277;48.722;8.736;2023-01-08T16:36:07;9.10;99.90
10459;DHT22;5277;48.722;8.736;2023-01-08T16:38:34;9.10;99.90
10459;DHT22;5277;48.722;8.736;2023-01-08T16:40:59;9.10;99.90
10459;DHT22;5277;48.722;8.736;2023-01-08T16:43:27;9.10;99.90
10459;DHT22;5277;48.722;8.736;2023-01-08T16:45:53;9.10;99.90
10459;DHT22;5277;48.722;8.736;2023-01-08T16:48:20;9.10;99.90
10459;DHT22;5277;48.722;8.736;2023-01-08T16:50:47;9.00;99.90
10459;DHT22;5277;48.722;8.736;2023-01-08T16:53:14;9.00;99.90
10459;DHT22;5277;48.722;8.736;2023-01-08T16:55:41;9.10;99.90
10459;DHT22;5277;48.722;8.736;2023-01-08T16:58:08;9.10;99.90
10459;DHT22;5277;48.722;8.736;2023-01-08T17:00:35;9.10;99.90
10459;DHT22;5277;48.722;8.736;2023-01-08T17:03:02;9.20;99.90
10459;DHT22;5277;48.722;8.736;2023-01-08T17:05:28;9.20;99.90
10459;DHT22;5277;48.722;8.736;2023-01-08T17:07:54;9.20;99.90
10459;DHT22;5277;48.722;8.736;2023-01-08T17:10:21;9.20;99.90
10459;DHT22;5277;48.722;8.736;2023-01-08T17:12:47;9.30;99.90
10459;DHT22;5277;48.722;8.736;2023-01-08T17:15:13;9.30;99.90
10459;DHT22;5277;48.722;8.736;2023-01-08T17:17:39;9.30;99.90
10459;DHT22;5277;48.722;8.736;2023-01-08T17:20:05;9.20;99.90
10459;DHT22;5277;48.722;8.736;2023-01-08T17:22:31;9.20;99.90
10459;DHT22;5277;48.722;8.736;2023-01-08T17:24:57;9.10;99.90
10459;DHT22;5277;48.722;8.736;2023-01-08T17:27:22;9.10;99.90
10459;DHT22;5277;48.722;8.736;2023-01-08T17:29:48;9.10;99.90
10459;DHT22;5277;48.722;8.736;2023-01-08T17:32:14;9.10;99.90
10459;DHT22;5277;48.722;8.736;2023-01-08T17:34:39;9.10;99.90
10459;DHT22;5277;48.722;8.736;2023-01-08T17:37:05;9.00;99.90